Ikarus — SWEW — position and weather

sailwx.info

Track history (hours):
 
Tides and Currents Weather Stations Pressure Air Temp Water Temp Dewpoint Dewpoint Depression Visibility Wind Speed Wind Dir Waves Ship Positions

Ikarus

Last reported at 2015-Feb-28 20:33 UTC. Time now 2015-Feb-28 20:56 UTC.
Position N 43°35' E 010°18'.

Length 200 m; draft 6.7 m.

Type: Ship. MMSI: 239513000.

Date/timePositionNaut miles runAvg speedWind from/ knotsBaromVisibWave heightAir tempDewpointWater temp
2015-Feb-28 20:33N 43°35' E 010°18'0 0.0
2015-Feb-28 19:33N 43°35' E 010°18'0 0.0
2015-Feb-28 18:33N 43°35' E 010°18'0 0.0
2015-Feb-28 17:33N 43°35' E 010°18'0 0.0
2015-Feb-28 16:33N 43°35' E 010°18'0 0.0
2015-Feb-28 15:33N 43°35' E 010°18'0 0.0
2015-Feb-28 14:33N 43°35' E 010°18'0 0.0
2015-Feb-28 13:33N 43°35' E 010°18'0 0.0
2015-Feb-28 12:33N 43°35' E 010°18'0 0.0
2015-Feb-28 11:33N 43°35' E 010°18'0 0.0
2015-Feb-28 10:33N 43°35' E 010°18'0 0.0
2015-Feb-28 09:33N 43°35' E 010°18'0 0.0
2015-Feb-28 08:33N 43°35' E 010°18'0 0.0
2015-Feb-28 07:33N 43°35' E 010°18'0 0.0
2015-Feb-28 06:33N 43°35' E 010°18'0 0.0
2015-Feb-28 05:33N 43°35' E 010°18'0 0.0
2015-Feb-28 04:33N 43°35' E 010°18'0 0.0
2015-Feb-28 03:33N 43°35' E 010°18'0 0.0
2015-Feb-28 02:33N 43°35' E 010°18'0 0.0
2015-Feb-28 01:33N 43°35' E 010°18'0 0.0
2015-Feb-28 00:33N 43°35' E 010°18'0 0.0
2015-Feb-27 23:33N 43°35' E 010°18'0 0.0
2015-Feb-27 22:33N 43°35' E 010°18'0 0.0
2015-Feb-27 21:33N 43°35' E 010°18'0 0.0
2015-Feb-27 20:33N 43°35' E 010°18'0 0.0
2015-Feb-27 19:30N 43°35' E 010°18'0 0.0
2015-Feb-27 18:30N 43°35' E 010°18'0 0.0
2015-Feb-27 17:33N 43°35' E 010°18'0 0.0
2015-Feb-27 16:33N 43°35' E 010°18'0 0.0
2015-Feb-27 15:33N 43°35' E 010°18'0 0.0
2015-Feb-27 14:33N 43°35' E 010°18'0 0.0
2015-Feb-27 13:33N 43°35' E 010°18'0 0.0
2015-Feb-27 12:33N 43°35' E 010°18'0 0.0
2015-Feb-27 11:33N 43°35' E 010°18'0 0.0
2015-Feb-27 10:33N 43°35' E 010°18'0 0.0
2015-Feb-27 09:33N 43°35' E 010°18'0 0.0
2015-Feb-27 08:33N 43°35' E 010°18'0 0.0
2015-Feb-27 07:33N 43°35' E 010°18'0 0.0
2015-Feb-27 06:33N 43°35' E 010°18'0 0.0
2015-Feb-27 05:30N 43°35' E 010°18'0 0.0
2015-Feb-27 04:33N 43°35' E 010°18'0 0.0
2015-Feb-27 03:33N 43°35' E 010°18'0 0.0
2015-Feb-27 02:33N 43°35' E 010°18'0 0.0
2015-Feb-27 01:33N 43°35' E 010°18'0 0.0
2015-Feb-27 00:33N 43°35' E 010°18'0 0.3
2015-Feb-26 23:34N 43°34' E 010°18'8 8.3
2015-Feb-26 22:34N 43°30' E 010°09'2019.6
2015-Feb-26 21:34N 43°29' E 009°42'2020.1
2015-Feb-26 20:34N 43°24' E 009°15'2020.4
2015-Feb-26 19:34N 43°19' E 008°48'6019.9
2015-Feb-26 16:33N 43°06' E 007°28'2020.0
2015-Feb-26 15:33N 43°02' E 007°01'1919.4
2015-Feb-26 14:33N 42°57' E 006°35'2619.7
2015-Feb-26 13:14N 42°53' E 006°00'7019.0
2015-Feb-26 09:33N 42°44' E 004°26'2321.0
2015-Feb-26 08:28N 42°41' E 003°55'2019.1
2015-Feb-26 07:24N 42°35' E 003°28'1817.3
2015-Feb-26 06:21N 42°18' E 003°23'7916.3
2015-Feb-26 01:32N 41°20' E 002°10'2 0.8
2015-Feb-25 23:31N 41°22' E 002°11'0 0.0
2015-Feb-25 22:25N 41°22' E 002°11'0 0.0
2015-Feb-25 21:31N 41°22' E 002°11'5 4.3
2015-Feb-25 20:23N 41°17' E 002°11'1517.9
2015-Feb-25 19:32N 41°05' E 001°59'2020.0
2015-Feb-25 18:33N 40°50' E 001°42'2020.1
2015-Feb-25 17:33N 40°35' E 001°24'2020.4
2015-Feb-25 16:33N 40°21' E 001°05'2120.5
2015-Feb-25 15:33N 40°07' E 000°45'13419.1
2015-Feb-25 08:33N 37°60' W 000°09'2019.9
2015-Feb-25 07:33N 37°43' W 000°23'1919.4
2015-Feb-25 06:33N 37°28' W 000°38'2019.5
2015-Feb-25 05:33N 37°15' W 000°56'21819.6
2015-Feb-24 18:27N 35°59' W 005°11'16 2.0
2015-Feb-24 10:26N 35°56' W 005°30'1314.6
2015-Feb-24 09:33N 36°03' W 005°17'21015.7
2015-Feb-23 20:13N 37°10' W 001°09'1014.8
2015-Feb-23 19:33N 37°16' W 000°60'1515.3
2015-Feb-23 18:33N 37°27' W 000°46'1616.0
2015-Feb-23 17:33N 37°38' W 000°31'1615.8
2015-Feb-23 16:33N 37°51' W 000°20'1616.1
2015-Feb-23 15:33N 38°04' W 000°09'1715.6
2015-Feb-23 14:27N 38°19' E 000°03'6315.6
2015-Feb-23 10:26N 39°13' E 000°44'1515.1
2015-Feb-23 09:27N 39°26' E 000°53'1715.2
2015-Feb-23 08:19N 39°41' E 001°03'1215.4
2015-Feb-23 07:33N 39°51' E 001°10'1615.6
2015-Feb-23 06:33N 40°05' E 001°20'1515.3
2015-Feb-23 05:33N 40°19' E 001°29'1514.8
2015-Feb-23 04:33N 40°32' E 001°39'1514.9
2015-Feb-23 03:33N 40°45' E 001°48'1615.6
2015-Feb-23 02:33N 40°58' E 001°58'2215.9
2015-Feb-23 01:09N 41°19' E 002°10'3 0.8
2015-Feb-22 21:28N 41°22' E 002°11'5 5.8
2015-Feb-22 20:31N 41°20' E 002°18'2220.5
2015-Feb-22 19:28N 41°32' E 002°42'2121.0
2015-Feb-22 18:28N 41°43' E 003°05'2020.2
2015-Feb-22 17:28N 42°00' E 003°19'2021.3
2015-Feb-22 16:31N 42°20' E 003°23'2120.5
2015-Feb-22 15:31N 42°41' E 003°23'1716.7
2015-Feb-22 14:29N 42°58' E 003°29'2018.6
2015-Feb-22 13:23N 43°01' E 003°56'1719.4
2015-Feb-22 12:30N 43°01' E 004°20'1819.4
2015-Feb-22 11:33N 43°01' E 004°45'6919.9
2015-Feb-22 08:05N 42°55' E 006°19'1121.3
2015-Feb-22 07:33N 42°57' E 006°34'2121.4
2015-Feb-22 06:33N 43°02' E 007°03'2120.9
2015-Feb-22 05:33N 43°07' E 007°30'6320.8
2015-Feb-22 02:32N 43°20' E 008°55'2020.5
2015-Feb-22 01:33N 43°24' E 009°22'2020.4
2015-Feb-22 00:34N 43°30' E 009°49'1918.8
2015-Feb-21 23:33N 43°32' E 010°14'4 4.1
2015-Feb-21 22:33N 43°35' E 010°18'0 0.0
2015-Feb-21 21:33N 43°35' E 010°18'0 0.0
2015-Feb-21 20:33N 43°35' E 010°18'0 0.0
2015-Feb-21 19:33N 43°35' E 010°18'0 0.0
2015-Feb-21 18:33N 43°35' E 010°18'0 0.0
2015-Feb-21 17:27N 43°35' E 010°18'0 0.0
2015-Feb-21 16:30N 43°35' E 010°18'0 0.0
2015-Feb-21 15:33N 43°35' E 010°18'0 0.0
2015-Feb-21 14:33N 43°35' E 010°18'0 0.0
2015-Feb-21 13:33N 43°35' E 010°18'0 0.0
2015-Feb-21 12:33N 43°35' E 010°18'0 0.0
2015-Feb-21 11:33N 43°35' E 010°18'0 0.0
2015-Feb-21 10:33N 43°35' E 010°18'0 0.0
2015-Feb-21 09:33N 43°35' E 010°18'0 0.0
2015-Feb-21 08:33N 43°35' E 010°18'0 0.0
2015-Feb-21 07:33N 43°35' E 010°18'0 0.0
2015-Feb-21 06:33N 43°35' E 010°18'0 0.0
2015-Feb-21 05:33N 43°35' E 010°18'0 0.0
2015-Feb-21 04:33N 43°35' E 010°18'0 0.0
2015-Feb-21 03:30N 43°35' E 010°18'0 0.0
2015-Feb-21 02:33N 43°35' E 010°18'0 0.0
2015-Feb-21 01:33N 43°35' E 010°18'0 0.0
2015-Feb-21 00:33N 43°35' E 010°18'0 0.0
2015-Feb-20 23:33N 43°35' E 010°18'0 0.0
2015-Feb-20 22:30N 43°35' E 010°18'0 0.0
2015-Feb-20 21:33N 43°35' E 010°18'0 0.0
2015-Feb-20 20:33N 43°35' E 010°18'0 0.0
2015-Feb-20 19:30N 43°35' E 010°18'0 0.0
2015-Feb-20 18:33N 43°35' E 010°18'0 0.0
2015-Feb-20 17:33N 43°35' E 010°18'0 0.0
2015-Feb-20 16:33N 43°35' E 010°18'0 0.0
2015-Feb-20 15:33N 43°35' E 010°18'0 0.0
2015-Feb-20 14:33N 43°35' E 010°18'0 0.0
2015-Feb-20 13:33N 43°35' E 010°18'0 0.0
2015-Feb-20 12:33N 43°35' E 010°18'0 0.0
2015-Feb-20 11:33N 43°35' E 010°18'0 0.0
2015-Feb-20 10:33N 43°35' E 010°18'0 0.0
2015-Feb-20 09:33N 43°35' E 010°18'0 0.0
2015-Feb-20 08:33N 43°35' E 010°18'0 0.0
2015-Feb-20 07:33N 43°35' E 010°18'0 0.0
2015-Feb-20 06:33N 43°35' E 010°18'1 1.1
2015-Feb-20 05:33N 43°34' E 010°18'10 9.6
2015-Feb-20 04:33N 43°27' E 010°09'1212.4
2015-Feb-20 03:33N 43°19' E 009°55'1312.6
2015-Feb-20 02:33N 43°15' E 009°39'1312.7
2015-Feb-20 01:33N 43°10' E 009°23'9913.5
2015-Feb-19 18:15N 42°36' E 007°16'1214.8
2015-Feb-19 17:25N 42°33' E 006°60'7814.9
2015-Feb-19 12:14N 42°07' E 005°21'1115.4
2015-Feb-19 11:31N 42°04' E 005°07'1815.3
2015-Feb-19 10:23N 41°58' E 004°45'1315.1
2015-Feb-19 09:33N 41°54' E 004°29'11310.1
2015-Feb-18 22:22N 41°12' E 002°08'1619.4
2015-Feb-18 21:33N 40°58' E 001°59'1919.4
2015-Feb-18 20:34N 40°41' E 001°47'  
Track history (hours):
 
Tides and Currents Weather Stations Pressure Air Temp Water Temp Dewpoint Dewpoint Depression Visibility Wind Speed Wind Dir Waves Ship Positions

Ikarus

Last reported at 2015-Feb-28 20:33 UTC. Time now 2015-Feb-28 20:56 UTC.
Position N 43°35' E 010°18'.

Length 200 m; draft 6.7 m.

Type: Ship. MMSI: 239513000.

Date/timePositionNaut miles runAvg speedWind from/ knotsBaromVisibWave heightAir tempDewpointWater temp
2015-Feb-28 20:33N 43°35' E 010°18'0 0.0
2015-Feb-28 19:33N 43°35' E 010°18'0 0.0
2015-Feb-28 18:33N 43°35' E 010°18'0 0.0
2015-Feb-28 17:33N 43°35' E 010°18'0 0.0
2015-Feb-28 16:33N 43°35' E 010°18'0 0.0
2015-Feb-28 15:33N 43°35' E 010°18'0 0.0
2015-Feb-28 14:33N 43°35' E 010°18'0 0.0
2015-Feb-28 13:33N 43°35' E 010°18'0 0.0
2015-Feb-28 12:33N 43°35' E 010°18'0 0.0
2015-Feb-28 11:33N 43°35' E 010°18'0 0.0
2015-Feb-28 10:33N 43°35' E 010°18'0 0.0
2015-Feb-28 09:33N 43°35' E 010°18'0 0.0
2015-Feb-28 08:33N 43°35' E 010°18'0 0.0
2015-Feb-28 07:33N 43°35' E 010°18'0 0.0
2015-Feb-28 06:33N 43°35' E 010°18'0 0.0
2015-Feb-28 05:33N 43°35' E 010°18'0 0.0
2015-Feb-28 04:33N 43°35' E 010°18'0 0.0
2015-Feb-28 03:33N 43°35' E 010°18'0 0.0
2015-Feb-28 02:33N 43°35' E 010°18'0 0.0
2015-Feb-28 01:33N 43°35' E 010°18'0 0.0
2015-Feb-28 00:33N 43°35' E 010°18'0 0.0
2015-Feb-27 23:33N 43°35' E 010°18'0 0.0
2015-Feb-27 22:33N 43°35' E 010°18'0 0.0
2015-Feb-27 21:33N 43°35' E 010°18'0 0.0
2015-Feb-27 20:33N 43°35' E 010°18'0 0.0
2015-Feb-27 19:30N 43°35' E 010°18'0 0.0
2015-Feb-27 18:30N 43°35' E 010°18'0 0.0
2015-Feb-27 17:33N 43°35' E 010°18'0 0.0
2015-Feb-27 16:33N 43°35' E 010°18'0 0.0
2015-Feb-27 15:33N 43°35' E 010°18'0 0.0
2015-Feb-27 14:33N 43°35' E 010°18'0 0.0
2015-Feb-27 13:33N 43°35' E 010°18'0 0.0
2015-Feb-27 12:33N 43°35' E 010°18'0 0.0
2015-Feb-27 11:33N 43°35' E 010°18'0 0.0
2015-Feb-27 10:33N 43°35' E 010°18'0 0.0
2015-Feb-27 09:33N 43°35' E 010°18'0 0.0
2015-Feb-27 08:33N 43°35' E 010°18'0 0.0
2015-Feb-27 07:33N 43°35' E 010°18'0 0.0
2015-Feb-27 06:33N 43°35' E 010°18'0 0.0
2015-Feb-27 05:30N 43°35' E 010°18'0 0.0
2015-Feb-27 04:33N 43°35' E 010°18'0 0.0
2015-Feb-27 03:33N 43°35' E 010°18'0 0.0
2015-Feb-27 02:33N 43°35' E 010°18'0 0.0
2015-Feb-27 01:33N 43°35' E 010°18'0 0.0
2015-Feb-27 00:33N 43°35' E 010°18'0 0.3
2015-Feb-26 23:34N 43°34' E 010°18'8 8.3
2015-Feb-26 22:34N 43°30' E 010°09'2019.6
2015-Feb-26 21:34N 43°29' E 009°42'2020.1
2015-Feb-26 20:34N 43°24' E 009°15'2020.4
2015-Feb-26 19:34N 43°19' E 008°48'6019.9
2015-Feb-26 16:33N 43°06' E 007°28'2020.0
2015-Feb-26 15:33N 43°02' E 007°01'1919.4
2015-Feb-26 14:33N 42°57' E 006°35'2619.7
2015-Feb-26 13:14N 42°53' E 006°00'7019.0
2015-Feb-26 09:33N 42°44' E 004°26'2321.0
2015-Feb-26 08:28N 42°41' E 003°55'2019.1
2015-Feb-26 07:24N 42°35' E 003°28'1817.3
2015-Feb-26 06:21N 42°18' E 003°23'7916.3
2015-Feb-26 01:32N 41°20' E 002°10'2 0.8
2015-Feb-25 23:31N 41°22' E 002°11'0 0.0
2015-Feb-25 22:25N 41°22' E 002°11'0 0.0
2015-Feb-25 21:31N 41°22' E 002°11'5 4.3
2015-Feb-25 20:23N 41°17' E 002°11'1517.9
2015-Feb-25 19:32N 41°05' E 001°59'2020.0
2015-Feb-25 18:33N 40°50' E 001°42'2020.1
2015-Feb-25 17:33N 40°35' E 001°24'2020.4
2015-Feb-25 16:33N 40°21' E 001°05'2120.5
2015-Feb-25 15:33N 40°07' E 000°45'13419.1
2015-Feb-25 08:33N 37°60' W 000°09'2019.9
2015-Feb-25 07:33N 37°43' W 000°23'1919.4
2015-Feb-25 06:33N 37°28' W 000°38'2019.5
2015-Feb-25 05:33N 37°15' W 000°56'21819.6
2015-Feb-24 18:27N 35°59' W 005°11'16 2.0
2015-Feb-24 10:26N 35°56' W 005°30'1314.6
2015-Feb-24 09:33N 36°03' W 005°17'21015.7
2015-Feb-23 20:13N 37°10' W 001°09'1014.8
2015-Feb-23 19:33N 37°16' W 000°60'1515.3
2015-Feb-23 18:33N 37°27' W 000°46'1616.0
2015-Feb-23 17:33N 37°38' W 000°31'1615.8
2015-Feb-23 16:33N 37°51' W 000°20'1616.1
2015-Feb-23 15:33N 38°04' W 000°09'1715.6
2015-Feb-23 14:27N 38°19' E 000°03'6315.6
2015-Feb-23 10:26N 39°13' E 000°44'1515.1
2015-Feb-23 09:27N 39°26' E 000°53'1715.2
2015-Feb-23 08:19N 39°41' E 001°03'1215.4
2015-Feb-23 07:33N 39°51' E 001°10'1615.6
2015-Feb-23 06:33N 40°05' E 001°20'1515.3
2015-Feb-23 05:33N 40°19' E 001°29'1514.8
2015-Feb-23 04:33N 40°32' E 001°39'1514.9
2015-Feb-23 03:33N 40°45' E 001°48'1615.6
2015-Feb-23 02:33N 40°58' E 001°58'2215.9
2015-Feb-23 01:09N 41°19' E 002°10'3 0.8
2015-Feb-22 21:28N 41°22' E 002°11'5 5.8
2015-Feb-22 20:31N 41°20' E 002°18'2220.5
2015-Feb-22 19:28N 41°32' E 002°42'2121.0
2015-Feb-22 18:28N 41°43' E 003°05'2020.2
2015-Feb-22 17:28N 42°00' E 003°19'2021.3
2015-Feb-22 16:31N 42°20' E 003°23'2120.5
2015-Feb-22 15:31N 42°41' E 003°23'1716.7
2015-Feb-22 14:29N 42°58' E 003°29'2018.6
2015-Feb-22 13:23N 43°01' E 003°56'1719.4
2015-Feb-22 12:30N 43°01' E 004°20'1819.4
2015-Feb-22 11:33N 43°01' E 004°45'6919.9
2015-Feb-22 08:05N 42°55' E 006°19'1121.3
2015-Feb-22 07:33N 42°57' E 006°34'2121.4
2015-Feb-22 06:33N 43°02' E 007°03'2120.9
2015-Feb-22 05:33N 43°07' E 007°30'6320.8
2015-Feb-22 02:32N 43°20' E 008°55'2020.5
2015-Feb-22 01:33N 43°24' E 009°22'2020.4
2015-Feb-22 00:34N 43°30' E 009°49'1918.8
2015-Feb-21 23:33N 43°32' E 010°14'4 4.1
2015-Feb-21 22:33N 43°35' E 010°18'0 0.0
2015-Feb-21 21:33N 43°35' E 010°18'0 0.0
2015-Feb-21 20:33N 43°35' E 010°18'0 0.0
2015-Feb-21 19:33N 43°35' E 010°18'0 0.0
2015-Feb-21 18:33N 43°35' E 010°18'0 0.0
2015-Feb-21 17:27N 43°35' E 010°18'0 0.0
2015-Feb-21 16:30N 43°35' E 010°18'0 0.0
2015-Feb-21 15:33N 43°35' E 010°18'0 0.0
2015-Feb-21 14:33N 43°35' E 010°18'0 0.0
2015-Feb-21 13:33N 43°35' E 010°18'0 0.0
2015-Feb-21 12:33N 43°35' E 010°18'0 0.0
2015-Feb-21 11:33N 43°35' E 010°18'0 0.0
2015-Feb-21 10:33N 43°35' E 010°18'0 0.0
2015-Feb-21 09:33N 43°35' E 010°18'0 0.0
2015-Feb-21 08:33N 43°35' E 010°18'0 0.0
2015-Feb-21 07:33N 43°35' E 010°18'0 0.0
2015-Feb-21 06:33N 43°35' E 010°18'0 0.0
2015-Feb-21 05:33N 43°35' E 010°18'0 0.0
2015-Feb-21 04:33N 43°35' E 010°18'0 0.0
2015-Feb-21 03:30N 43°35' E 010°18'0 0.0
2015-Feb-21 02:33N 43°35' E 010°18'0 0.0
2015-Feb-21 01:33N 43°35' E 010°18'0 0.0
2015-Feb-21 00:33N 43°35' E 010°18'0 0.0
2015-Feb-20 23:33N 43°35' E 010°18'0 0.0
2015-Feb-20 22:30N 43°35' E 010°18'0 0.0
2015-Feb-20 21:33N 43°35' E 010°18'0 0.0
2015-Feb-20 20:33N 43°35' E 010°18'0 0.0
2015-Feb-20 19:30N 43°35' E 010°18'0 0.0
2015-Feb-20 18:33N 43°35' E 010°18'0 0.0
2015-Feb-20 17:33N 43°35' E 010°18'0 0.0
2015-Feb-20 16:33N 43°35' E 010°18'0 0.0
2015-Feb-20 15:33N 43°35' E 010°18'0 0.0
2015-Feb-20 14:33N 43°35' E 010°18'0 0.0
2015-Feb-20 13:33N 43°35' E 010°18'0 0.0
2015-Feb-20 12:33N 43°35' E 010°18'0 0.0
2015-Feb-20 11:33N 43°35' E 010°18'0 0.0
2015-Feb-20 10:33N 43°35' E 010°18'0 0.0
2015-Feb-20 09:33N 43°35' E 010°18'0 0.0
2015-Feb-20 08:33N 43°35' E 010°18'0 0.0
2015-Feb-20 07:33N 43°35' E 010°18'0 0.0
2015-Feb-20 06:33N 43°35' E 010°18'1 1.1
2015-Feb-20 05:33N 43°34' E 010°18'10 9.6
2015-Feb-20 04:33N 43°27' E 010°09'1212.4
2015-Feb-20 03:33N 43°19' E 009°55'1312.6
2015-Feb-20 02:33N 43°15' E 009°39'1312.7
2015-Feb-20 01:33N 43°10' E 009°23'9913.5
2015-Feb-19 18:15N 42°36' E 007°16'1214.8
2015-Feb-19 17:25N 42°33' E 006°60'7814.9
2015-Feb-19 12:14N 42°07' E 005°21'1115.4
2015-Feb-19 11:31N 42°04' E 005°07'1815.3
2015-Feb-19 10:23N 41°58' E 004°45'1315.1
2015-Feb-19 09:33N 41°54' E 004°29'11310.1
2015-Feb-18 22:22N 41°12' E 002°08'1619.4
2015-Feb-18 21:33N 40°58' E 001°59'1919.4
2015-Feb-18 20:34N 40°41' E 001°47'  

Dump ship's entire track history